createdAt,value
2022-07-31T00:00:28.224Z,15.77
2022-07-31T00:02:56.113Z,16.20
2022-07-31T00:05:25.600Z,15.75
2022-07-31T00:07:54.170Z,14.45
2022-07-31T00:10:21.666Z,16.85
2022-07-31T00:12:49.366Z,16.02
2022-07-31T00:15:17.641Z,17.17
2022-07-31T00:17:46.031Z,18.40
2022-07-31T00:20:15.269Z,18.92
2022-07-31T00:22:44.499Z,18.83
2022-07-31T00:25:13.518Z,18.40
2022-07-31T00:27:42.214Z,22.50
2022-07-31T00:30:13.132Z,22.33
2022-07-31T00:32:42.116Z,20.27
2022-07-31T00:35:14.310Z,18.50
2022-07-31T00:37:43.384Z,18.27
2022-07-31T00:40:13.359Z,20.27
2022-07-31T00:42:41.510Z,19.15
2022-07-31T00:45:10.395Z,20.00
2022-07-31T00:47:42.259Z,17.77
2022-07-31T00:50:11.633Z,18.92
2022-07-31T00:52:40.777Z,19.52
2022-07-31T00:55:08.780Z,17.65
2022-07-31T00:57:36.623Z,16.77
2022-07-31T01:00:05.616Z,16.00
2022-07-31T01:02:33.306Z,19.15
2022-07-31T01:05:00.827Z,17.08
2022-07-31T01:07:28.337Z,15.50
2022-07-31T01:09:56.990Z,16.98
2022-07-31T01:12:33.962Z,19.85
2022-07-31T01:15:06.040Z,17.63
2022-07-31T01:17:36.320Z,15.43
2022-07-31T01:20:04.669Z,18.63
2022-07-31T01:23:19.638Z,17.77
2022-07-31T01:26:31.751Z,16.43
2022-07-31T01:29:10.206Z,20.63
2022-07-31T01:31:48.211Z,15.50
2022-07-31T01:34:24.606Z,17.55
2022-07-31T01:37:13.119Z,17.42
2022-07-31T01:39:46.981Z,17.63
2022-07-31T01:42:18.624Z,17.23
2022-07-31T01:44:51.431Z,18.05
2022-07-31T01:47:21.708Z,18.00
2022-07-31T01:49:53.626Z,20.02
2022-07-31T01:52:26.260Z,18.70
2022-07-31T01:54:56.011Z,16.25
2022-07-31T01:57:26.047Z,14.82
2022-07-31T01:59:58.779Z,14.15
2022-07-31T02:02:45.100Z,18.55
2022-07-31T02:05:13.491Z,21.15
2022-07-31T02:07:43.220Z,17.25
2022-07-31T02:10:13.863Z,17.10
2022-07-31T02:12:44.182Z,16.45
2022-07-31T02:15:14.441Z,13.93
2022-07-31T02:17:46.787Z,13.75
2022-07-31T02:20:41.601Z,13.88
2022-07-31T02:23:12.102Z,17.90
2022-07-31T02:25:40.458Z,14.30
2022-07-31T02:28:10.709Z,11.90
2022-07-31T02:30:41.625Z,13.80
2022-07-31T02:33:19.139Z,14.57
2022-07-31T02:35:53.936Z,13.20
2022-07-31T02:38:24.270Z,14.57
2022-07-31T02:40:58.879Z,14.30
2022-07-31T02:43:28.771Z,11.85
2022-07-31T02:45:58.645Z,13.63
2022-07-31T02:48:27.188Z,13.35
2022-07-31T02:50:57.776Z,12.70
2022-07-31T02:53:27.233Z,10.63
2022-07-31T02:56:01.439Z,10.57
2022-07-31T02:58:32.646Z,12.27
2022-07-31T03:01:06.111Z,12.95
2022-07-31T03:03:35.461Z,11.32
2022-07-31T03:06:03.289Z,11.88
2022-07-31T03:08:34.210Z,12.98
2022-07-31T03:11:05.962Z,13.07
2022-07-31T03:13:35.440Z,10.75
2022-07-31T03:16:07.309Z,13.07
2022-07-31T03:18:36.740Z,12.75
2022-07-31T03:21:05.001Z,11.82
2022-07-31T03:23:36.614Z,12.65
2022-07-31T03:26:16.418Z,10.63
2022-07-31T03:28:44.066Z,12.05
2022-07-31T03:31:11.555Z,10.48
2022-07-31T03:33:39.177Z,10.30
2022-07-31T03:36:09.662Z,12.73
2022-07-31T03:38:42.226Z,10.68
2022-07-31T03:41:34.181Z,14.45
2022-07-31T03:44:02.779Z,14.02
2022-07-31T03:46:31.196Z,12.38
2022-07-31T03:48:59.197Z,11.68
2022-07-31T03:51:28.153Z,13.48
2022-07-31T03:53:56.462Z,11.70
2022-07-31T03:56:50.109Z,11.52
2022-07-31T03:59:20.298Z,10.15
2022-07-31T04:01:57.219Z,8.98
2022-07-31T04:04:43.500Z,12.60
2022-07-31T04:07:11.152Z,8.55
2022-07-31T04:09:38.828Z,8.82
2022-07-31T04:12:07.805Z,9.48
2022-07-31T04:14:35.700Z,8.15
2022-07-31T04:17:03.543Z,6.70
2022-07-31T04:19:31.682Z,7.53
2022-07-31T04:22:00.761Z,6.22
2022-07-31T04:24:28.612Z,5.65
2022-07-31T04:27:02.240Z,6.85
2022-07-31T04:29:37.590Z,6.78
2022-07-31T04:32:06.030Z,5.60
2022-07-31T04:34:43.841Z,5.30
2022-07-31T04:37:11.516Z,5.72
2022-07-31T04:39:39.050Z,8.38
2022-07-31T04:42:11.269Z,5.22
2022-07-31T04:44:39.282Z,6.50
2022-07-31T04:47:08.264Z,4.45
2022-07-31T04:49:41.980Z,4.93
2022-07-31T04:52:11.898Z,3.88
2022-07-31T04:54:41.181Z,4.75
2022-07-31T04:57:11.185Z,5.20
2022-07-31T04:59:57.877Z,8.73
2022-07-31T05:02:26.527Z,4.32
2022-07-31T05:04:57.232Z,3.53
2022-07-31T05:07:30.879Z,5.00
2022-07-31T05:10:00.921Z,3.63
2022-07-31T05:12:28.640Z,4.75
2022-07-31T05:14:56.359Z,5.25
2022-07-31T05:17:23.992Z,5.88
2022-07-31T05:20:00.997Z,4.30
2022-07-31T05:22:51.570Z,4.32
2022-07-31T05:25:41.707Z,4.68
2022-07-31T05:28:09.812Z,5.10
2022-07-31T05:30:38.280Z,4.60
2022-07-31T05:33:07.032Z,5.38
2022-07-31T05:35:35.931Z,3.90
2022-07-31T05:38:03.510Z,3.97
2022-07-31T05:40:57.441Z,5.68
2022-07-31T05:43:54.420Z,4.28
2022-07-31T05:46:25.799Z,3.47
2022-07-31T05:48:53.718Z,4.15
2022-07-31T05:51:21.298Z,3.47
2022-07-31T05:53:50.090Z,6.28
2022-07-31T05:56:36.050Z,5.43
2022-07-31T05:59:04.105Z,3.83
2022-07-31T06:01:32.012Z,6.20
2022-07-31T06:03:59.959Z,4.18
2022-07-31T06:06:32.878Z,3.80
2022-07-31T06:09:04.560Z,4.78
2022-07-31T06:11:36.561Z,4.68
2022-07-31T06:14:04.160Z,4.07
2022-07-31T06:16:50.347Z,3.55
2022-07-31T06:19:19.847Z,3.67
2022-07-31T06:21:54.027Z,4.78
2022-07-31T06:24:22.865Z,3.35
2022-07-31T06:26:50.490Z,4.10
2022-07-31T06:29:18.176Z,5.18
2022-07-31T06:31:45.970Z,3.45
2022-07-31T06:34:18.276Z,7.30
2022-07-31T06:36:49.148Z,4.68
2022-07-31T06:39:19.638Z,3.83
2022-07-31T06:42:10.378Z,3.55
2022-07-31T06:44:45.788Z,2.80
2022-07-31T06:47:32.331Z,5.20
2022-07-31T06:50:17.567Z,5.30
2022-07-31T06:52:55.297Z,6.95
2022-07-31T06:55:24.628Z,4.57
2022-07-31T06:57:52.129Z,2.67
2022-07-31T07:00:21.047Z,4.63
2022-07-31T07:02:51.597Z,6.43
2022-07-31T07:05:19.319Z,5.68
2022-07-31T07:07:51.229Z,7.18
2022-07-31T07:10:18.859Z,6.07
2022-07-31T07:13:01.431Z,4.90
2022-07-31T07:15:33.460Z,4.38
2022-07-31T07:18:01.068Z,5.25
2022-07-31T07:20:39.460Z,2.95
2022-07-31T07:23:07.092Z,5.65
2022-07-31T07:25:38.885Z,3.95
2022-07-31T07:28:14.843Z,4.05
2022-07-31T07:30:43.529Z,4.93
2022-07-31T07:33:11.995Z,2.80
2022-07-31T07:35:39.859Z,2.83
2022-07-31T07:38:13.699Z,3.55
2022-07-31T07:40:44.351Z,2.80
2022-07-31T07:43:12.135Z,3.17
2022-07-31T07:45:40.175Z,4.40
2022-07-31T07:48:08.130Z,3.72
2022-07-31T07:50:58.598Z,2.97
2022-07-31T07:53:31.850Z,3.20
2022-07-31T07:56:18.128Z,6.82
2022-07-31T07:59:04.329Z,3.13
2022-07-31T08:01:50.405Z,4.07
2022-07-31T08:04:23.719Z,3.28
2022-07-31T08:06:51.319Z,6.05
2022-07-31T08:09:21.289Z,3.13
2022-07-31T08:12:08.778Z,3.15
2022-07-31T08:14:56.505Z,3.20
2022-07-31T08:17:47.269Z,3.97
2022-07-31T08:20:15.421Z,3.33
2022-07-31T08:22:43.684Z,4.60
2022-07-31T08:25:15.114Z,3.10
2022-07-31T08:27:43.548Z,2.50
2022-07-31T08:30:15.977Z,2.80
2022-07-31T08:32:43.648Z,2.83
2022-07-31T08:35:20.978Z,6.38
2022-07-31T08:37:52.151Z,2.97
2022-07-31T08:40:32.678Z,4.72
2022-07-31T08:43:14.626Z,3.90
2022-07-31T08:45:53.008Z,3.22
2022-07-31T08:48:32.869Z,3.35
2022-07-31T08:51:03.839Z,3.17
2022-07-31T08:54:11.348Z,4.57
2022-07-31T08:56:39.457Z,3.88
2022-07-31T08:59:09.227Z,6.00
2022-07-31T09:01:39.108Z,3.65
2022-07-31T09:04:06.998Z,5.80
2022-07-31T09:06:34.547Z,3.17
2022-07-31T09:09:02.458Z,3.63
2022-07-31T09:11:30.828Z,6.00
2022-07-31T09:14:30.188Z,3.13
2022-07-31T09:16:58.127Z,4.00
2022-07-31T09:19:54.302Z,8.85
2022-07-31T09:22:28.327Z,3.10
2022-07-31T09:25:16.428Z,6.32
2022-07-31T09:27:45.379Z,3.63
2022-07-31T09:30:13.228Z,4.80
2022-07-31T09:33:19.098Z,7.78
2022-07-31T09:36:01.857Z,3.90
2022-07-31T09:38:39.456Z,4.57
2022-07-31T09:42:00.232Z,5.63
2022-07-31T09:44:25.292Z,3.95
2022-07-31T09:46:54.507Z,3.03
2022-07-31T09:49:31.962Z,2.90
2022-07-31T09:52:00.857Z,4.43
2022-07-31T09:54:31.646Z,3.70
2022-07-31T09:56:59.393Z,5.35
2022-07-31T10:02:01.427Z,3.88
2022-07-31T10:04:29.334Z,4.32
2022-07-31T10:06:57.485Z,6.13
2022-07-31T10:09:25.569Z,3.95
2022-07-31T10:12:18.355Z,3.72
2022-07-31T10:14:48.945Z,4.22
2022-07-31T10:17:26.279Z,5.95
2022-07-31T10:20:06.578Z,5.30
2022-07-31T10:22:49.589Z,3.83
2022-07-31T10:25:29.929Z,5.32
2022-07-31T10:27:58.883Z,4.18
2022-07-31T10:30:28.878Z,5.72
2022-07-31T10:33:00.350Z,5.00
2022-07-31T10:35:28.342Z,5.95
2022-07-31T10:38:41.893Z,6.05
2022-07-31T10:41:54.645Z,3.47
2022-07-31T10:44:52.782Z,4.93
2022-07-31T10:47:27.363Z,4.03
2022-07-31T10:50:22.560Z,5.32
2022-07-31T10:53:16.730Z,5.47
2022-07-31T10:56:19.754Z,6.35
2022-07-31T10:59:11.078Z,4.03
2022-07-31T11:01:55.287Z,4.95
2022-07-31T11:04:38.743Z,7.18
2022-07-31T11:07:38.492Z,3.33
2022-07-31T11:10:12.318Z,5.90
2022-07-31T11:13:11.134Z,5.65
2022-07-31T11:16:06.643Z,4.85
2022-07-31T11:19:13.933Z,5.32
2022-07-31T11:21:42.438Z,5.40
2022-07-31T11:24:17.369Z,4.55
2022-07-31T11:26:52.092Z,5.07
2022-07-31T11:30:00.679Z,4.22
2022-07-31T11:32:25.751Z,5.50
2022-07-31T11:34:56.962Z,8.63
2022-07-31T11:37:56.875Z,5.95
2022-07-31T11:40:22.503Z,6.15
2022-07-31T11:45:49.919Z,5.47
2022-07-31T11:48:19.704Z,4.15
2022-07-31T11:50:48.918Z,7.18
2022-07-31T11:53:17.952Z,4.50
2022-07-31T11:55:56.140Z,4.40
2022-07-31T11:58:25.377Z,4.72
2022-07-31T12:00:59.981Z,5.47
2022-07-31T12:03:35.462Z,5.40
2022-07-31T12:06:04.534Z,4.85
2022-07-31T12:08:33.032Z,8.40
2022-07-31T12:11:02.222Z,6.60
2022-07-31T12:13:30.650Z,3.60
2022-07-31T12:16:05.145Z,6.35
2022-07-31T12:18:56.610Z,4.55
2022-07-31T12:21:35.939Z,4.82
2022-07-31T12:24:11.471Z,7.20
2022-07-31T12:26:39.171Z,4.70
2022-07-31T12:29:08.663Z,4.07
2022-07-31T12:31:46.622Z,5.72
2022-07-31T12:34:35.818Z,6.90
2022-07-31T12:37:07.040Z,6.50
2022-07-31T12:39:53.885Z,16.50
2022-07-31T12:42:30.224Z,12.70
2022-07-31T12:45:18.333Z,4.22
2022-07-31T12:47:51.946Z,5.45
2022-07-31T12:50:24.894Z,4.18
2022-07-31T12:52:52.963Z,7.75
2022-07-31T12:55:21.031Z,4.38
2022-07-31T12:57:51.703Z,4.88
2022-07-31T13:00:23.286Z,4.03
2022-07-31T13:02:52.706Z,5.72
2022-07-31T13:05:21.191Z,10.40
2022-07-31T13:07:49.662Z,7.45
2022-07-31T13:10:21.314Z,4.32
2022-07-31T13:12:52.969Z,5.03
2022-07-31T13:15:30.053Z,4.13
2022-07-31T13:18:02.115Z,2.72
2022-07-31T13:20:31.277Z,4.22
2022-07-31T13:23:03.181Z,3.83
2022-07-31T13:25:30.947Z,3.25
2022-07-31T13:27:59.192Z,10.18
2022-07-31T13:30:28.490Z,2.88
2022-07-31T13:32:55.940Z,2.85
2022-07-31T13:35:28.632Z,8.95
2022-07-31T13:37:57.033Z,4.43
2022-07-31T13:40:44.530Z,2.30
2022-07-31T13:43:13.200Z,2.58
2022-07-31T13:45:40.712Z,2.70
2022-07-31T13:48:10.243Z,3.08
2022-07-31T13:50:40.072Z,3.13
2022-07-31T13:53:08.926Z,2.83
2022-07-31T13:55:36.847Z,3.83
2022-07-31T13:58:04.695Z,4.63
2022-07-31T14:00:32.538Z,5.03
2022-07-31T14:03:00.230Z,4.25
2022-07-31T14:05:28.308Z,4.22
2022-07-31T14:08:29.646Z,5.63
2022-07-31T14:10:48.449Z,3.67
2022-07-31T14:13:19.617Z,2.50
2022-07-31T14:15:48.064Z,4.00
2022-07-31T14:18:15.875Z,5.53
2022-07-31T14:20:43.382Z,4.10
2022-07-31T14:23:11.431Z,6.50
2022-07-31T14:25:39.797Z,4.30
2022-07-31T14:28:08.722Z,4.32
2022-07-31T14:30:37.483Z,3.55
2022-07-31T14:33:05.286Z,2.55
2022-07-31T14:35:33.791Z,3.45
2022-07-31T14:38:04.220Z,2.67
2022-07-31T14:40:32.340Z,3.25
2022-07-31T14:43:00.182Z,2.38
2022-07-31T14:45:28.077Z,2.30
2022-07-31T14:47:57.340Z,2.75
2022-07-31T14:50:25.147Z,1.95
2022-07-31T14:52:52.861Z,8.13
2022-07-31T14:55:21.119Z,5.93
2022-07-31T14:57:48.649Z,2.03
2022-07-31T15:00:16.882Z,6.28
2022-07-31T15:02:45.058Z,2.65
2022-07-31T15:06:42.350Z,1.67
2022-07-31T15:08:02.530Z,3.83
2022-07-31T15:10:31.547Z,2.20
2022-07-31T15:12:59.129Z,2.03
2022-07-31T15:15:28.587Z,1.70
2022-07-31T15:17:56.862Z,3.33
2022-07-31T15:20:32.900Z,1.52
2022-07-31T15:23:02.033Z,1.63
2022-07-31T15:25:30.477Z,2.58
2022-07-31T15:27:58.401Z,3.80
2022-07-31T15:30:26.039Z,2.15
2022-07-31T15:32:53.722Z,2.22
2022-07-31T15:35:21.295Z,3.58
2022-07-31T15:37:49.782Z,1.85
2022-07-31T15:40:17.942Z,2.95
2022-07-31T15:42:46.846Z,3.35
2022-07-31T15:45:16.823Z,1.42
2022-07-31T15:47:45.663Z,1.52
2022-07-31T15:50:15.663Z,4.07
2022-07-31T15:52:43.507Z,2.38
2022-07-31T15:55:11.777Z,2.78
2022-07-31T15:57:39.707Z,2.45
2022-07-31T16:00:11.163Z,2.97
2022-07-31T16:02:39.661Z,1.65
2022-07-31T16:05:11.274Z,1.45
2022-07-31T16:08:30.275Z,2.33
2022-07-31T16:10:28.360Z,3.75
2022-07-31T16:12:55.979Z,5.15
2022-07-31T16:15:24.142Z,2.42
2022-07-31T16:17:54.262Z,6.20
2022-07-31T16:20:27.104Z,2.17
2022-07-31T16:22:58.501Z,3.30
2022-07-31T16:25:27.341Z,1.55
2022-07-31T16:27:55.497Z,2.40
2022-07-31T16:30:23.622Z,2.08
2022-07-31T16:32:51.620Z,3.70
2022-07-31T16:35:19.523Z,2.78
2022-07-31T16:37:52.059Z,1.83
2022-07-31T16:40:26.876Z,1.70
2022-07-31T16:43:01.598Z,2.38
2022-07-31T16:45:30.179Z,3.85
2022-07-31T16:47:58.022Z,4.28
2022-07-31T16:50:26.002Z,4.40
2022-07-31T16:52:55.083Z,2.72
2022-07-31T16:55:51.551Z,2.10
2022-07-31T16:58:12.701Z,3.75
2022-07-31T17:00:40.561Z,3.10
2022-07-31T17:03:59.503Z,2.60
2022-07-31T17:05:56.393Z,1.92
2022-07-31T17:08:24.239Z,1.70
2022-07-31T17:10:54.622Z,3.47
2022-07-31T17:13:23.346Z,1.52
2022-07-31T17:15:51.020Z,2.42
2022-07-31T17:18:19.021Z,3.97
2022-07-31T17:20:47.298Z,9.30
2022-07-31T17:23:15.689Z,1.30
2022-07-31T17:25:43.999Z,2.20
2022-07-31T17:28:15.393Z,1.63
2022-07-31T17:30:45.154Z,2.63
2022-07-31T17:33:13.198Z,1.67
2022-07-31T17:35:41.118Z,4.88
2022-07-31T17:38:08.821Z,4.32
2022-07-31T17:40:44.400Z,3.60
2022-07-31T17:43:14.260Z,1.77
2022-07-31T17:45:59.367Z,2.58
2022-07-31T17:48:32.077Z,3.58
2022-07-31T17:50:59.719Z,2.67
2022-07-31T17:53:31.102Z,1.63
2022-07-31T17:56:16.676Z,2.45
2022-07-31T17:58:44.360Z,2.45
2022-07-31T18:01:12.100Z,3.10
2022-07-31T18:03:39.801Z,1.70
2022-07-31T18:06:07.522Z,3.40
2022-07-31T18:08:35.237Z,1.38
2022-07-31T18:11:03.040Z,3.22
2022-07-31T18:13:30.736Z,1.38
2022-07-31T18:16:08.276Z,1.58
2022-07-31T18:18:35.962Z,1.83
2022-07-31T18:21:03.920Z,1.98
2022-07-31T18:23:32.619Z,3.15
2022-07-31T18:26:01.001Z,1.55
2022-07-31T18:28:31.840Z,1.30
2022-07-31T18:31:03.699Z,2.65
2022-07-31T18:33:31.456Z,1.77
2022-07-31T18:35:59.096Z,1.63
2022-07-31T18:38:26.840Z,1.40
2022-07-31T18:40:56.102Z,1.50
2022-07-31T18:43:23.724Z,1.50
2022-07-31T18:45:51.541Z,1.65
2022-07-31T18:48:20.463Z,2.70
2022-07-31T18:50:59.640Z,1.63
2022-07-31T18:53:32.258Z,2.55
2022-07-31T18:56:00.220Z,3.88
2022-07-31T18:58:27.919Z,2.25
2022-07-31T19:00:55.937Z,1.20
2022-07-31T19:03:26.470Z,1.65
2022-07-31T19:05:54.648Z,1.77
2022-07-31T19:08:22.500Z,1.02
2022-07-31T19:10:53.566Z,1.45
2022-07-31T19:13:22.559Z,2.53
2022-07-31T19:15:53.172Z,1.40
2022-07-31T19:18:26.357Z,1.65
2022-07-31T19:21:22.995Z,2.10
2022-07-31T19:23:48.299Z,1.63
2022-07-31T19:26:16.920Z,3.03
2022-07-31T19:28:44.662Z,1.40
2022-07-31T19:31:13.527Z,1.45
2022-07-31T19:33:41.599Z,2.88
2022-07-31T19:36:10.865Z,1.88
2022-07-31T19:38:41.055Z,1.40
2022-07-31T19:41:08.679Z,1.30
2022-07-31T19:43:36.439Z,1.40
2022-07-31T19:46:12.338Z,1.58
2022-07-31T19:48:45.963Z,2.17
2022-07-31T19:51:15.963Z,1.95
2022-07-31T19:53:44.738Z,1.85
2022-07-31T19:56:18.338Z,3.38
2022-07-31T19:58:49.521Z,2.42
2022-07-31T20:01:20.272Z,2.38
2022-07-31T20:03:49.782Z,3.97
2022-07-31T20:06:17.645Z,2.33
2022-07-31T20:08:45.265Z,2.92
2022-07-31T20:11:13.637Z,8.02
2022-07-31T20:13:41.476Z,3.38
2022-07-31T20:16:09.519Z,2.30
2022-07-31T20:18:37.359Z,3.88
2022-07-31T20:21:07.957Z,2.65
2022-07-31T20:23:41.809Z,2.63
2022-07-31T20:28:42.760Z,2.85
2022-07-31T20:31:15.941Z,3.85
2022-07-31T20:33:57.080Z,6.15
2022-07-31T20:36:27.033Z,3.15
2022-07-31T20:38:55.400Z,2.40
2022-07-31T20:41:22.999Z,3.33
2022-07-31T20:43:50.621Z,2.47
2022-07-31T20:46:18.665Z,3.63
2022-07-31T20:48:46.238Z,2.72
2022-07-31T20:51:20.553Z,3.38
2022-07-31T20:53:52.281Z,2.60
2022-07-31T20:56:20.224Z,3.35
2022-07-31T20:58:51.698Z,3.05
2022-07-31T21:01:21.585Z,4.00
2022-07-31T21:03:49.396Z,2.65
2022-07-31T21:06:17.038Z,2.80
2022-07-31T21:08:44.656Z,2.40
2022-07-31T21:11:12.398Z,2.75
2022-07-31T21:13:40.146Z,2.30
2022-07-31T21:16:08.199Z,4.55
2022-07-31T21:18:38.867Z,3.03
2022-07-31T21:21:08.996Z,2.83
2022-07-31T21:23:36.518Z,3.42
2022-07-31T21:26:04.387Z,2.42
2022-07-31T21:28:32.418Z,2.40
2022-07-31T21:31:00.560Z,3.28
2022-07-31T21:33:28.521Z,3.58
2022-07-31T21:35:56.274Z,3.47
2022-07-31T21:38:24.161Z,2.28
2022-07-31T21:40:53.694Z,4.82
2022-07-31T21:43:22.960Z,3.33
2022-07-31T21:45:57.491Z,5.78
2022-07-31T21:48:31.561Z,3.85
2022-07-31T21:51:00.915Z,2.70
2022-07-31T21:53:28.618Z,2.38
2022-07-31T21:56:00.957Z,3.05
2022-07-31T21:58:28.499Z,3.10
2022-07-31T22:00:56.057Z,2.80
2022-07-31T22:03:25.602Z,2.92
2022-07-31T22:06:11.739Z,2.70
2022-07-31T22:08:39.794Z,3.70
2022-07-31T22:11:07.500Z,4.05
2022-07-31T22:13:35.557Z,3.25
2022-07-31T22:16:03.284Z,3.38
2022-07-31T22:18:33.584Z,6.15
2022-07-31T22:21:04.998Z,2.65
2022-07-31T22:23:32.799Z,3.92
2022-07-31T22:26:00.874Z,2.88
2022-07-31T22:28:28.635Z,3.88
2022-07-31T22:30:57.301Z,3.65
2022-07-31T22:33:25.327Z,3.22
2022-07-31T22:35:59.032Z,3.63
2022-07-31T22:38:29.776Z,3.50
2022-07-31T22:40:58.962Z,3.55
2022-07-31T22:44:12.383Z,5.55
2022-07-31T22:46:15.893Z,3.35
2022-07-31T22:48:45.585Z,4.05
2022-07-31T22:51:15.041Z,2.33
2022-07-31T22:53:49.163Z,3.75
2022-07-31T22:56:17.954Z,2.40
2022-07-31T22:58:45.768Z,2.97
2022-07-31T23:01:13.557Z,2.70
2022-07-31T23:03:41.040Z,3.45
2022-07-31T23:06:30.571Z,2.60
2022-07-31T23:08:56.380Z,2.65
2022-07-31T23:11:24.831Z,4.50
2022-07-31T23:13:52.965Z,4.43
2022-07-31T23:16:21.535Z,3.05
2022-07-31T23:18:50.061Z,2.50
2022-07-31T23:21:18.908Z,2.70
2022-07-31T23:23:48.546Z,3.25
2022-07-31T23:26:21.620Z,2.70
2022-07-31T23:28:49.737Z,2.53
2022-07-31T23:31:18.153Z,2.38
2022-07-31T23:33:47.537Z,3.75
2022-07-31T23:36:16.275Z,2.45
2022-07-31T23:38:44.581Z,2.22
2022-07-31T23:41:12.898Z,3.03
2022-07-31T23:43:40.860Z,2.78
2022-07-31T23:46:26.502Z,2.50
2022-07-31T23:48:54.781Z,2.50
2022-07-31T23:51:23.777Z,2.63
2022-07-31T23:53:51.657Z,2.60
2022-07-31T23:56:19.947Z,2.80
2022-07-31T23:58:47.592Z,3.47
